Time;durP1;ratioP1;P1;durP2;ratioP2;P2;SDS_P1;SDS_P2;PMS_P1;PMS_P2;Temp;Humidity;BMP_temperature;BMP_pressure;BME280_temperature;BME280_humidity;BME280_pressure;Samples;Min_cycle;Max_cycle;Signal;HPM_P1;HPM_P2
2022/03/22 00:00:15;;;;;;;70.20;32.10;;;;;;;-1.54;62.80;102905.04;84763;1322;22593;-70
2022/03/22 00:02:44;;;;;;;69.80;30.00;;;;;;;-1.52;62.88;102908.07;84743;1327;22606;-70
2022/03/22 00:04:53;;;;;;;65.20;30.50;;;;;;;-1.52;62.64;102907.38;84787;1327;23965;-71
2022/03/22 00:07:02;;;;;;;67.00;30.50;;;;;;;-1.54;62.76;102904.20;84718;1320;25315;-71
2022/03/22 00:09:14;;;;;;;71.60;31.20;;;;;;;-1.57;62.77;102906.09;84028;1327;1002995;-71
2022/03/22 00:11:26;;;;;;;71.10;29.60;;;;;;;-1.62;62.63;102908.42;84731;1324;22701;-73
2022/03/22 00:13:37;;;;;;;68.60;31.90;;;;;;;-1.65;62.53;102905.02;84705;1328;22761;-71
2022/03/22 00:15:47;;;;;;;74.30;32.00;;;;;;;-1.67;62.61;102903.69;84752;1322;24125;-80
2022/03/22 00:17:58;;;;;;;73.00;32.80;;;;;;;-1.71;62.70;102902.82;84016;1327;1002973;-80
2022/03/22 00:20:12;;;;;;;67.70;31.70;;;;;;;-1.75;62.59;102901.05;84758;1326;22719;-71
2022/03/22 00:22:22;;;;;;;71.10;32.20;;;;;;;-1.78;62.47;102902.93;84741;1326;22577;-71
2022/03/22 00:24:34;;;;;;;61.30;31.50;;;;;;;-1.82;62.58;102900.51;84775;1324;22583;-71
2022/03/22 00:26:43;;;;;;;67.60;30.00;;;;;;;-1.87;63.10;102899.89;84730;1325;24265;-71
2022/03/22 00:28:53;;;;;;;66.60;29.70;;;;;;;-1.92;63.42;102900.00;84769;1327;22708;-71
2022/03/22 00:31:02;;;;;;;68.10;30.10;;;;;;;-1.95;63.51;102896.55;84743;1326;22584;-70
2022/03/22 00:33:12;;;;;;;58.40;28.70;;;;;;;-1.97;63.68;102897.80;84740;1327;22717;-71
2022/03/22 00:35:21;;;;;;;58.50;25.70;;;;;;;-1.98;63.68;102893.83;84759;1327;22586;-79
2022/03/22 00:37:30;;;;;;;52.00;23.70;;;;;;;-1.96;63.77;102896.48;84718;1327;23901;-79
2022/03/22 00:39:43;;;;;;;54.20;23.70;;;;;;;-1.93;64.09;102896.00;84731;1327;24271;-77
2022/03/22 00:41:52;;;;;;;43.40;23.60;;;;;;;-1.89;64.17;102895.88;84743;1324;22599;-79
2022/03/22 00:44:01;;;;;;;48.30;22.50;;;;;;;-1.85;64.16;102898.80;84689;1329;22567;-71
2022/03/22 00:46:11;;;;;;;51.20;22.60;;;;;;;-1.83;64.15;102897.69;84705;1327;24178;-70
2022/03/22 00:48:21;;;;;;;54.30;25.00;;;;;;;-1.82;64.07;102896.09;83987;1330;1003862;-70
2022/03/22 00:50:33;;;;;;;60.00;27.40;;;;;;;-1.80;64.02;102896.70;84733;1326;22581;-71
2022/03/22 00:52:44;;;;;;;55.10;27.80;;;;;;;-1.80;63.95;102893.42;84720;1326;25316;-71
2022/03/22 00:54:53;;;;;;;56.60;27.60;;;;;;;-1.81;64.04;102893.02;84729;1327;22631;-70
2022/03/22 00:57:05;;;;;;;55.50;27.90;;;;;;;-1.84;63.92;102892.69;84727;1326;22859;-70
2022/03/22 01:01:44;;;;;;;61.20;27.70;;;;;;;-1.96;64.11;102890.86;84743;1327;25348;-76
2022/03/22 01:03:53;;;;;;;61.70;27.50;;;;;;;-2.01;64.16;102890.59;84730;1328;22589;-77
2022/03/22 01:06:03;;;;;;;54.80;28.40;;;;;;;-2.06;63.98;102888.27;84724;1326;24100;-77
2022/03/22 01:08:16;;;;;;;68.90;29.10;;;;;;;-2.10;64.05;102891.80;84708;1322;22559;-75
2022/03/22 01:10:26;;;;;;;55.20;28.60;;;;;;;-2.17;64.28;102884.98;83953;1327;1112399;-76
2022/03/22 01:12:36;;;;;;;58.70;26.60;;;;;;;-2.21;63.99;102887.29;84736;1322;22829;-78
2022/03/22 01:14:48;;;;;;;80.70;27.80;;;;;;;-2.24;64.14;102887.13;84728;1325;22600;-75
2022/03/22 01:16:57;;;;;;;58.70;25.30;;;;;;;-2.26;64.33;102884.64;84728;1328;22741;-79
2022/03/22 01:19:10;;;;;;;63.90;26.30;;;;;;;-2.27;64.30;102882.67;84718;1324;22608;-78
2022/03/22 01:21:19;;;;;;;64.50;27.20;;;;;;;-2.28;64.38;102881.42;84693;1328;22569;-79
2022/03/22 01:23:28;;;;;;;62.30;28.10;;;;;;;-2.26;64.56;102877.46;84730;1326;22834;-79
2022/03/22 01:25:39;;;;;;;56.00;26.20;;;;;;;-2.26;64.79;102878.48;84740;1327;23896;-79
2022/03/22 01:27:49;;;;;;;57.40;28.50;;;;;;;-2.27;64.87;102878.77;84731;1326;22723;-79
2022/03/22 01:30:02;;;;;;;56.00;27.30;;;;;;;-2.28;65.00;102876.33;84738;1327;25483;-71
2022/03/22 01:32:12;;;;;;;61.50;27.20;;;;;;;-2.28;65.11;102877.65;84725;1321;22603;-71
2022/03/22 01:34:21;;;;;;;57.80;28.60;;;;;;;-2.27;65.14;102877.55;84758;1326;25255;-70
2022/03/22 01:36:31;;;;;;;55.80;26.70;;;;;;;-2.27;65.22;102881.98;84716;1325;22701;-70
2022/03/22 01:38:40;;;;;;;55.30;27.70;;;;;;;-2.27;65.20;102882.16;84013;1327;1003882;-70
2022/03/22 01:40:50;;;;;;;82.00;32.50;;;;;;;-2.31;65.31;102882.15;84721;1326;22642;-70
2022/03/22 01:43:03;;;;;;;77.40;34.40;;;;;;;-2.34;65.17;102879.41;84718;1326;22627;-70
2022/03/22 01:45:15;;;;;;;70.90;33.40;;;;;;;-2.37;65.29;102878.55;84760;1325;22718;-78
2022/03/22 01:47:29;;;;;;;73.20;33.00;;;;;;;-2.40;65.21;102880.77;84728;1327;23379;-78
2022/03/22 01:49:41;;;;;;;77.70;32.40;;;;;;;-2.42;65.33;102877.61;84733;1322;22628;-70
2022/03/22 01:51:51;;;;;;;83.90;33.30;;;;;;;-2.44;65.47;102879.04;84714;1326;22651;-70
2022/03/22 01:54:01;;;;;;;77.40;32.70;;;;;;;-2.44;65.64;102879.88;84738;1327;25300;-76
2022/03/22 01:56:11;;;;;;;81.00;32.90;;;;;;;-2.44;65.54;102880.58;84706;1322;22563;-78
2022/03/22 01:58:21;;;;;;;72.70;32.70;;;;;;;-2.42;65.70;102877.43;84732;1326;23978;-78
2022/03/22 02:00:33;;;;;;;81.30;34.70;;;;;;;-2.41;65.82;102880.02;84759;1327;23105;-70
2022/03/22 02:07:38;;;;;;;77.50;33.50;;;;;;;-2.42;65.96;102881.90;84736;1326;22699;-69
2022/03/22 02:09:50;;;;;;;89.10;35.00;;;;;;;-2.43;65.89;102883.72;84746;1327;24246;-69
2022/03/22 02:11:59;;;;;;;77.60;33.20;;;;;;;-2.46;65.79;102880.78;84724;1327;22589;-69
2022/03/22 02:14:11;;;;;;;72.70;30.50;;;;;;;-2.49;65.74;102878.89;84767;1326;22783;-76
2022/03/22 02:16:20;;;;;;;65.10;28.70;;;;;;;-2.53;66.05;102879.73;84734;1326;24314;-77
2022/03/22 02:18:34;;;;;;;64.10;28.40;;;;;;;-2.59;66.13;102879.05;84740;1322;23782;-77
2022/03/22 02:20:45;;;;;;;59.10;27.60;;;;;;;-2.62;66.14;102881.29;84737;1324;22931;-77
2022/03/22 02:22:59;;;;;;;70.60;27.90;;;;;;;-2.64;66.15;102880.34;84744;1326;23012;-77
2022/03/22 02:25:15;;;;;;;62.00;28.00;;;;;;;-2.64;66.23;102878.41;84724;1326;22622;-77
2022/03/22 02:27:28;;;;;;;59.00;25.00;;;;;;;-2.63;66.43;102877.44;84704;1326;25455;-77
2022/03/22 02:29:37;;;;;;;57.20;25.50;;;;;;;-2.61;66.47;102880.15;84756;1322;22674;-69
2022/03/22 02:31:49;;;;;;;;;;;;;;;-2.59;66.56;102879.21;84740;1326;22593;-70
2022/03/22 02:33:59;;;;;;;64.30;26.50;;;;;;;-2.61;66.69;102881.02;84757;1326;25936;-71
2022/03/22 02:36:09;;;;;;;75.90;32.40;;;;;;;-2.59;66.64;102881.25;84768;1330;22610;-70
2022/03/22 02:38:16;;;;;;;;;;;;;;;-2.59;66.57;102879.55;84770;1326;22577;-70
2022/03/22 02:40:31;;;;;;;73.40;30.70;;;;;;;-2.62;66.49;102880.79;84715;1329;22595;-70
2022/03/22 02:42:40;;;;;;;64.40;28.50;;;;;;;-2.63;66.46;102879.34;84729;1330;22589;-70
2022/03/22 02:44:49;;;;;;;65.40;28.90;;;;;;;-2.64;66.57;102881.67;84763;1326;22583;-78
2022/03/22 02:46:58;;;;;;;57.40;26.40;;;;;;;-2.67;66.57;102880.15;84729;1327;22715;-78
2022/03/22 02:49:08;;;;;;;48.10;24.70;;;;;;;-2.70;66.53;102880.98;84756;1326;23966;-70
2022/03/22 02:51:17;;;;;;;56.20;25.50;;;;;;;-2.74;66.79;102883.99;84711;1327;24224;-71
2022/03/22 02:53:26;;;;;;;63.00;28.00;;;;;;;-2.77;66.64;102887.58;84046;1327;1003004;-70
2022/03/22 02:55:38;;;;;;;59.40;24.40;;;;;;;-2.80;66.96;102883.48;84731;1327;22631;-71
2022/03/22 02:57:47;;;;;;;70.90;27.70;;;;;;;-2.85;66.88;102885.95;84739;1326;25294;-70
2022/03/22 03:00:00;;;;;;;74.90;31.60;;;;;;;-2.88;66.87;102884.25;84745;1326;22581;-77
2022/03/22 03:02:09;;;;;;;105.80;34.80;;;;;;;-2.89;66.89;102883.85;84740;1324;22932;-77
2022/03/22 03:04:18;;;;;;;94.60;31.80;;;;;;;-2.88;66.92;102888.86;84742;1326;25265;-76
2022/03/22 03:06:30;;;;;;;95.80;32.70;;;;;;;-2.85;67.04;102889.19;84745;1325;22799;-78
2022/03/22 03:08:42;;;;;;;78.60;32.00;;;;;;;-2.85;67.04;102891.92;84735;1324;22796;-78
2022/03/22 03:10:52;;;;;;;87.60;32.30;;;;;;;-2.84;66.96;102892.48;84724;1328;24274;-71
2022/03/22 03:13:05;;;;;;;89.60;35.00;;;;;;;-2.82;66.98;102896.38;84725;1322;22581;-70
2022/03/22 03:15:16;;;;;;;93.60;32.60;;;;;;;-2.81;66.96;102899.48;84722;1327;22728;-70
2022/03/22 03:17:25;;;;;;;80.10;32.10;;;;;;;-2.81;66.88;102899.66;84736;1325;25288;-70
2022/03/22 03:19:38;;;;;;;73.60;28.20;;;;;;;-2.81;66.80;102899.84;84703;1326;22596;-70
2022/03/22 03:21:47;;;;;;;67.60;29.50;;;;;;;-2.83;66.84;102900.22;84000;1327;1003038;-70
2022/03/22 03:23:57;;;;;;;66.00;27.50;;;;;;;-2.88;66.89;102898.41;84723;1326;24318;-70
2022/03/22 03:26:06;;;;;;;83.20;30.50;;;;;;;-2.94;66.82;102902.86;84747;1327;22656;-77
2022/03/22 03:28:18;;;;;;;65.10;25.50;;;;;;;-2.98;67.01;102905.33;84751;1326;22604;-77
2022/03/22 03:30:27;;;;;;;56.70;25.60;;;;;;;-3.02;67.10;102905.32;84765;1327;24400;-70
2022/03/22 03:32:41;;;;;;;65.80;28.50;;;;;;;-3.06;67.12;102908.66;84723;1326;24384;-70
2022/03/22 03:34:50;;;;;;;69.50;28.60;;;;;;;-3.10;67.15;102905.68;84743;1326;23971;-70
2022/03/22 03:36:59;;;;;;;59.50;25.30;;;;;;;-3.13;67.07;102904.51;83987;1327;1003008;-71
2022/03/22 03:39:09;;;;;;;62.60;27.80;;;;;;;-3.15;67.08;102903.19;84722;1330;22809;-75
2022/03/22 03:43:42;;;;;;;56.80;25.40;;;;;;;-3.21;67.49;102908.10;84734;1321;22737;-76
2022/03/22 03:48:21;;;;;;;57.40;25.90;;;;;;;-3.18;67.55;102905.38;84735;1323;22584;-77
2022/03/22 03:50:31;;;;;;;60.50;27.40;;;;;;;-3.15;67.79;102906.27;84702;1328;23947;-70
2022/03/22 03:52:39;;;;;;;;;;;;;;;-3.13;67.70;102907.91;84763;1327;22549;-70
2022/03/22 03:54:52;;;;;;;56.00;25.80;;;;;;;-3.13;67.73;102907.74;84761;1330;22637;-70
2022/03/22 03:57:01;;;;;;;62.80;27.50;;;;;;;-3.11;67.69;102908.70;84729;1327;22612;-70
2022/03/22 03:59:11;;;;;;;60.00;28.00;;;;;;;-3.11;67.65;102907.34;84766;1326;22599;-70
2022/03/22 04:01:21;;;;;;;64.60;27.80;;;;;;;-3.13;67.51;102907.06;84730;1327;23936;-70
2022/03/22 04:03:30;;;;;;;64.40;30.50;;;;;;;-3.15;67.38;102908.30;84747;1322;22803;-70
2022/03/22 04:05:42;;;;;;;66.60;30.80;;;;;;;-3.18;67.34;102910.16;84733;1330;24399;-70
2022/03/22 04:07:50;;;;;;;66.90;29.90;;;;;;;-3.21;67.42;102913.42;84726;1323;25423;-70
2022/03/22 04:10:00;;;;;;;76.10;32.10;;;;;;;-3.23;67.36;102918.08;84770;1327;24074;-72
2022/03/22 04:12:12;;;;;;;84.00;33.30;;;;;;;-3.26;67.51;102915.52;84752;1328;25292;-70
2022/03/22 04:14:21;;;;;;;80.50;35.50;;;;;;;-3.30;67.62;102916.27;84023;1326;1002642;-76
2022/03/22 04:16:30;;;;;;;71.10;32.20;;;;;;;-3.33;67.43;102916.61;84762;1327;22616;-77
2022/03/22 04:18:38;;;;;;;77.50;31.10;;;;;;;-3.35;67.59;102918.73;84689;1327;24213;-77
2022/03/22 04:20:49;;;;;;;69.30;29.90;;;;;;;-3.36;67.63;102919.17;84753;1327;22713;-77
2022/03/22 04:22:59;;;;;;;66.40;28.60;;;;;;;-3.37;67.93;102919.10;84736;1326;22599;-78
2022/03/22 04:25:12;;;;;;;76.60;30.70;;;;;;;-3.39;67.96;102917.81;84751;1327;22598;-77
2022/03/22 04:34:43;;;;;;;67.20;29.20;;;;;;;-3.37;68.23;102920.30;84741;1327;22570;-76
2022/03/22 04:36:58;;;;;;;67.90;30.40;;;;;;;-3.37;68.25;102919.46;84721;1326;24283;-75
2022/03/22 04:39:08;;;;;;;60.50;29.60;;;;;;;-3.36;68.27;102918.11;84710;1330;22717;-71
2022/03/22 04:41:16;;;;;;;64.00;31.10;;;;;;;-3.34;68.38;102915.73;84726;1327;23900;-70
2022/03/22 04:43:28;;;;;;;64.20;30.00;;;;;;;-3.35;68.38;102916.34;84724;1327;25256;-71
2022/03/22 04:45:38;;;;;;;61.60;32.40;;;;;;;-3.36;68.41;102919.35;84730;1327;22853;-75
2022/03/22 04:47:46;;;;;;;;;;;;;;;-3.35;68.47;102919.38;84744;1327;22561;-77
2022/03/22 04:49:58;;;;;;;69.20;30.90;;;;;;;-3.39;68.56;102923.44;84689;1330;25451;-70
2022/03/22 04:57:18;;;;;;;60.90;30.60;;;;;;;-3.37;68.59;102922.02;84379;1334;22584;-70
2022/03/22 04:59:27;;;;;;;59.40;30.60;;;;;;;-3.32;68.68;102925.02;84453;1334;24273;-70
2022/03/22 05:01:35;;;;;;;65.90;29.50;;;;;;;-3.29;68.81;102925.23;84688;1330;22606;-70
2022/03/22 05:03:44;;;;;;;64.50;29.20;;;;;;;-3.25;68.90;102927.36;84678;1329;23975;-72
2022/03/22 05:08:20;;;;;;;60.00;30.70;;;;;;;-3.15;68.96;102927.60;84706;1328;24239;-76
2022/03/22 05:10:29;;;;;;;59.40;31.30;;;;;;;-3.10;69.07;102928.56;84707;1326;23942;-78
2022/03/22 05:12:42;;;;;;;68.70;33.60;;;;;;;-3.05;69.21;102930.21;84703;1330;22593;-77
2022/03/22 05:14:53;;;;;;;64.30;30.80;;;;;;;-3.00;69.09;102928.98;84741;1330;22845;-76
2022/03/22 05:17:03;;;;;;;67.30;32.30;;;;;;;-2.96;69.26;102925.45;84009;1330;1002598;-76
2022/03/22 05:19:16;;;;;;;66.90;32.20;;;;;;;-2.86;69.12;102924.66;84717;1330;22851;-71
2022/03/22 05:21:26;;;;;;;75.40;32.00;;;;;;;-2.62;69.19;102925.70;84720;1329;22790;-70
2022/03/22 05:23:37;;;;;;;62.40;31.80;;;;;;;-2.43;69.25;102922.98;84718;1328;25502;-71
2022/03/22 05:25:50;;;;;;;72.90;33.10;;;;;;;-2.05;69.17;102927.02;84669;1330;22635;-71
2022/03/22 05:28:03;;;;;;;65.20;31.90;;;;;;;-1.87;68.78;102927.45;84668;1330;24132;-71
2022/03/22 05:30:17;;;;;;;62.50;33.10;;;;;;;-1.82;68.43;102927.73;84739;1324;22580;-77
2022/03/22 05:32:27;;;;;;;68.50;33.30;;;;;;;-1.74;68.21;102928.97;84728;1326;24020;-77
2022/03/22 05:34:41;;;;;;;90.30;39.30;;;;;;;-1.65;68.28;102931.52;84748;1328;22623;-75
2022/03/22 05:36:50;;;;;;;74.60;35.40;;;;;;;-1.56;68.24;102927.90;84689;1328;22651;-77
2022/03/22 05:39:02;;;;;;;84.00;38.70;;;;;;;-1.48;68.13;102929.00;84707;1328;26506;-73
2022/03/22 05:41:12;;;;;;;83.20;37.80;;;;;;;-1.39;68.00;102930.32;84692;1330;22638;-71
2022/03/22 05:43:21;;;;;;;83.70;39.60;;;;;;;-1.33;68.01;102926.20;84673;1328;25254;-70
2022/03/22 05:45:33;;;;;;;82.90;37.00;;;;;;;-1.24;67.99;102925.29;84688;1329;22574;-69
2022/03/22 05:47:47;;;;;;;89.10;37.70;;;;;;;-1.15;67.86;102924.02;84703;1330;22624;-70
2022/03/22 05:49:57;;;;;;;73.30;34.10;;;;;;;-1.06;67.87;102924.30;84728;1329;22872;-80
2022/03/22 05:52:06;;;;;;;86.70;35.70;;;;;;;-0.92;68.05;102923.63;84701;1328;22607;-80
2022/03/22 05:54:15;;;;;;;66.90;33.40;;;;;;;-0.54;67.99;102919.34;84666;1329;22604;-70
2022/03/22 05:56:25;;;;;;;74.00;33.90;;;;;;;0.32;67.96;102917.16;84702;1329;22731;-70
2022/03/22 05:58:37;;;;;;;68.80;33.70;;;;;;;1.45;69.73;102915.59;84686;1329;22688;-70
2022/03/22 06:00:47;;;;;;;71.70;37.10;;;;;;;2.85;68.98;102913.42;84709;1330;22873;-79
2022/03/22 06:02:59;;;;;;;67.80;35.80;;;;;;;4.20;67.67;102907.00;84685;1330;23012;-80
2022/03/22 06:05:11;;;;;;;60.30;33.00;;;;;;;5.64;64.88;102906.77;84716;1332;23869;-74
2022/03/22 06:07:24;;;;;;;62.60;34.50;;;;;;;6.87;60.92;102904.27;84720;1328;24059;-75
2022/03/22 06:09:33;;;;;;;58.50;35.80;;;;;;;7.82;56.81;102897.82;84714;1330;24211;-71
2022/03/22 06:11:42;;;;;;;56.80;33.30;;;;;;;8.63;54.16;102892.56;84692;1331;22606;-71
2022/03/22 06:13:57;;;;;;;56.90;33.90;;;;;;;9.48;51.45;102895.56;84649;1332;22648;-72
2022/03/22 06:16:06;;;;;;;57.70;33.00;;;;;;;10.18;49.19;102890.73;84715;1329;22726;-73
2022/03/22 06:18:18;;;;;;;62.80;34.60;;;;;;;10.70;47.44;102889.86;84707;1329;22576;-80
2022/03/22 06:20:29;;;;;;;55.90;36.10;;;;;;;11.03;45.54;102889.54;84744;1330;23946;-80
2022/03/22 06:22:38;;;;;;;56.80;35.90;;;;;;;11.43;44.32;102885.52;84710;1328;22585;-78
2022/03/22 06:24:47;;;;;;;66.20;38.20;;;;;;;11.83;42.71;102887.37;84740;1332;24020;-78
2022/03/22 06:26:59;;;;;;;60.50;38.20;;;;;;;12.21;41.84;102885.30;84675;1331;23932;-78
2022/03/22 06:29:08;;;;;;;63.90;37.30;;;;;;;12.32;41.39;102888.22;84726;1330;22589;-75
2022/03/22 06:31:21;;;;;;;68.10;37.60;;;;;;;12.43;41.19;102882.92;84730;1329;22694;-75
2022/03/22 06:33:30;;;;;;;72.30;37.90;;;;;;;12.48;40.93;102879.92;84702;1331;23950;-80
2022/03/22 06:35:40;;;;;;;73.10;40.30;;;;;;;12.49;40.55;102882.19;84692;1331;23933;-79
2022/03/22 06:37:50;;;;;;;72.50;39.20;;;;;;;12.41;40.31;102884.86;84682;1330;24191;-75
2022/03/22 06:40:02;;;;;;;62.10;39.20;;;;;;;12.49;40.11;102890.07;84702;1331;23964;-71
2022/03/22 06:42:12;;;;;;;61.40;39.60;;;;;;;12.34;40.08;102891.73;84703;1331;22873;-72
2022/03/22 06:44:21;;;;;;;62.50;41.00;;;;;;;12.57;40.32;102888.62;84695;1328;25309;-71
2022/03/22 06:46:32;;;;;;;68.50;42.10;;;;;;;12.84;39.98;102891.07;84674;1329;24073;-72
2022/03/22 06:48:42;;;;;;;70.60;44.00;;;;;;;13.26;39.32;102890.91;84691;1330;24246;-72
2022/03/22 06:50:51;;;;;;;70.80;44.30;;;;;;;13.83;38.47;102890.17;84737;1328;25440;-73
2022/03/22 06:53:04;;;;;;;77.00;47.00;;;;;;;14.42;37.49;102885.77;84689;1328;22616;-74
2022/03/22 06:55:16;;;;;;;75.30;46.00;;;;;;;14.91;36.53;102887.34;84721;1332;22643;-71
2022/03/22 06:57:27;;;;;;;74.20;45.50;;;;;;;15.43;36.06;102884.70;84693;1330;25441;-70
2022/03/22 06:59:39;;;;;;;79.90;45.40;;;;;;;15.92;34.91;102885.54;84723;1330;22601;-79
2022/03/22 07:01:51;;;;;;;74.50;46.20;;;;;;;16.39;34.05;102878.73;84714;1330;22588;-80
2022/03/22 07:04:02;;;;;;;82.50;44.90;;;;;;;16.85;32.72;102882.09;84715;1327;24128;-71
2022/03/22 07:06:11;;;;;;;78.80;44.40;;;;;;;17.20;32.43;102880.52;84695;1327;24284;-71
2022/03/22 07:08:23;;;;;;;70.40;43.20;;;;;;;17.59;32.10;102883.02;84702;1332;22611;-71
2022/03/22 07:10:36;;;;;;;71.10;41.10;;;;;;;18.03;30.86;102881.80;84718;1328;22599;-71
2022/03/22 07:12:53;;;;;;;68.70;42.10;;;;;;;18.34;30.17;102882.80;84707;1329;22601;-71
2022/03/22 07:15:05;;;;;;;64.10;41.70;;;;;;;18.74;29.97;102880.30;84714;1329;23895;-75
2022/03/22 07:17:14;;;;;;;63.90;41.40;;;;;;;19.19;29.28;102881.32;84693;1332;22630;-75
2022/03/22 07:19:24;;;;;;;67.90;41.00;;;;;;;19.57;28.75;102877.70;84679;1328;25477;-75
2022/03/22 07:21:31;;;;;;;;;;;;;;;19.85;27.79;102877.60;84736;1330;22868;-75
2022/03/22 07:23:42;;;;;;;66.50;40.90;;;;;;;19.99;27.57;102874.73;84705;1329;25544;-84
2022/03/22 07:25:54;;;;;;;65.40;40.30;;;;;;;20.45;27.01;102875.11;84687;1330;22723;-71
2022/03/22 07:28:03;;;;;;;70.90;40.60;;;;;;;20.86;26.59;102878.07;84698;1328;24948;-71
2022/03/22 07:30:14;;;;;;;58.40;37.80;;;;;;;21.39;26.64;102878.86;84684;1326;22728;-71
2022/03/22 07:32:23;;;;;;;59.20;36.90;;;;;;;21.89;25.31;102877.33;84699;1328;22627;-70
2022/03/22 07:34:33;;;;;;;60.60;36.10;;;;;;;22.18;24.55;102876.73;84682;1330;22588;-71
2022/03/22 07:36:41;;;;;;;;;;;;;;;22.50;24.35;102870.71;84718;1331;24102;-80
2022/03/22 07:38:51;;;;;;;51.20;33.10;;;;;;;22.79;23.92;102870.20;84701;1330;22602;-80
2022/03/22 07:41:00;;;;;;;51.80;32.40;;;;;;;23.06;23.23;102866.02;84694;1332;24356;-70
2022/03/22 07:43:09;;;;;;;46.10;31.90;;;;;;;23.34;22.72;102865.67;84691;1331;23844;-72
2022/03/22 07:45:20;;;;;;;42.50;26.70;;;;;;;23.62;22.43;102865.60;84714;1325;22587;-70
2022/03/22 07:47:33;;;;;;;39.00;25.70;;;;;;;24.01;22.08;102859.95;84673;1328;22956;-70
2022/03/22 07:54:40;;;;;;;37.00;24.70;;;;;;;25.41;20.58;102861.08;84722;1327;24190;-71
2022/03/22 07:56:49;;;;;;;42.70;24.90;;;;;;;25.85;20.20;102859.25;84673;1329;25575;-71
2022/03/22 07:58:58;;;;;;;33.00;24.60;;;;;;;26.25;19.78;102859.34;84704;1329;23023;-74
2022/03/22 08:01:07;;;;;;;35.10;25.10;;;;;;;26.30;19.23;102861.77;84690;1329;24370;-77
2022/03/22 08:03:18;;;;;;;34.90;24.30;;;;;;;26.40;18.98;102860.91;84689;1329;22714;-79
2022/03/22 08:05:28;;;;;;;36.60;23.90;;;;;;;26.58;18.74;102861.31;84695;1328;23966;-81
2022/03/22 08:07:36;;;;;;;36.70;26.50;;;;;;;26.87;18.60;102859.38;84699;1330;22861;-79
2022/03/22 08:09:46;;;;;;;46.30;24.70;;;;;;;27.04;17.90;102861.09;84719;1330;22706;-79
2022/03/22 08:11:55;;;;;;;35.00;23.80;;;;;;;27.10;18.27;102860.19;84731;1321;22733;-81
2022/03/22 08:14:07;;;;;;;32.90;23.80;;;;;;;27.26;17.86;102864.08;84733;1332;25575;-78
2022/03/22 08:16:16;;;;;;;38.00;26.70;;;;;;;27.55;17.61;102865.09;84695;1330;26592;-75
2022/03/22 08:18:25;;;;;;;34.10;24.50;;;;;;;27.79;17.16;102860.53;84681;1329;22891;-77
2022/03/22 08:20:34;;;;;;;33.90;24.60;;;;;;;27.90;17.01;102861.16;84680;1332;25276;-80
2022/03/22 08:22:59;;;;;;;39.80;25.00;;;;;;;28.07;17.07;102862.66;84704;1331;22603;-79
2022/03/22 08:25:09;;;;;;;34.80;24.20;;;;;;;28.39;16.51;102857.83;84710;1332;22595;-80
2022/03/22 08:27:19;;;;;;;32.70;23.60;;;;;;;28.42;15.89;102859.17;84715;1327;22632;-79
2022/03/22 08:29:31;;;;;;;37.00;23.20;;;;;;;28.43;16.13;102855.85;84696;1326;23906;-71
2022/03/22 08:31:41;;;;;;;34.90;23.40;;;;;;;28.47;15.73;102855.58;84696;1328;22938;-72
2022/03/22 08:33:53;;;;;;;28.90;22.10;;;;;;;28.54;15.84;102850.94;84710;1331;22644;-70
2022/03/22 08:36:04;;;;;;;31.90;22.10;;;;;;;28.80;15.50;102853.09;84706;1329;25444;-71
2022/03/22 08:38:13;;;;;;;32.90;22.30;;;;;;;28.98;15.29;102849.02;84708;1328;22621;-70
2022/03/22 08:40:26;;;;;;;27.40;20.80;;;;;;;29.10;14.71;102848.09;84729;1329;22583;-72
2022/03/22 08:42:37;;;;;;;32.30;21.40;;;;;;;28.95;15.01;102846.20;84693;1329;23961;-71
2022/03/22 08:44:48;;;;;;;29.40;18.90;;;;;;;28.99;15.14;102848.58;84724;1330;23909;-71
2022/03/22 08:46:59;;;;;;;25.90;17.80;;;;;;;28.75;14.54;102846.98;84678;1332;24282;-70
2022/03/22 08:49:08;;;;;;;26.00;17.30;;;;;;;28.65;14.61;102840.95;84732;1326;23937;-71
2022/03/22 08:51:19;;;;;;;20.90;17.40;;;;;;;28.69;14.52;102843.86;84712;1332;24148;-70
2022/03/22 08:53:32;;;;;;;23.50;18.00;;;;;;;28.60;14.59;102841.68;84732;1329;24253;-70
2022/03/22 08:55:42;;;;;;;21.30;17.60;;;;;;;28.75;14.30;102841.76;84700;1329;22650;-79
2022/03/22 08:57:55;;;;;;;21.20;15.30;;;;;;;28.72;14.57;102841.62;84606;1331;22645;-81
2022/03/22 09:00:08;;;;;;;21.30;17.20;;;;;;;28.70;14.73;102838.39;84591;1330;23928;-71
2022/03/22 09:02:19;;;;;;;24.10;18.00;;;;;;;28.89;14.91;102834.48;84528;1333;22797;-71
2022/03/22 09:06:54;;;;;;;25.60;18.40;;;;;;;29.08;14.30;102836.03;84597;1333;25462;-79
2022/03/22 09:09:04;;;;;;;25.20;19.80;;;;;;;29.15;14.39;102838.35;84642;1329;22875;-71
2022/03/22 09:11:16;;;;;;;26.60;20.60;;;;;;;29.01;14.20;102834.23;84200;1332;388495;-71
2022/03/22 09:13:29;;;;;;;30.10;20.40;;;;;;;28.96;14.20;102830.30;84547;1334;24128;-72
2022/03/22 09:15:39;;;;;;;28.90;20.40;;;;;;;28.63;13.79;102832.09;84602;1333;23784;-79
2022/03/22 09:17:48;;;;;;;25.20;19.20;;;;;;;28.30;14.41;102824.69;84575;1332;22607;-80
2022/03/22 09:20:01;;;;;;;26.00;18.90;;;;;;;28.50;14.83;102823.41;84656;1330;25701;-81
2022/03/22 09:22:14;;;;;;;23.10;16.70;;;;;;;28.79;14.68;102820.45;84635;1330;22709;-71
2022/03/22 09:24:24;;;;;;;56.60;19.60;;;;;;;28.98;14.61;102818.83;84637;1329;22596;-73
2022/03/22 09:26:34;;;;;;;21.20;16.70;;;;;;;29.14;14.60;102818.47;84628;1329;22628;-73
2022/03/22 09:31:08;;;;;;;19.50;16.20;;;;;;;29.33;13.82;102818.94;81844;1370;545503;-71
2022/03/22 09:33:18;;;;;;;23.20;15.70;;;;;;;29.26;14.06;102816.08;84255;1339;22600;-87
2022/03/22 09:35:27;;;;;;;19.80;16.50;;;;;;;29.22;13.23;102815.52;84176;1339;22720;-71
2022/03/22 09:37:36;;;;;;;16.60;14.00;;;;;;;29.05;13.56;102817.18;84157;1339;23937;-71
2022/03/22 09:39:47;;;;;;;23.20;14.80;;;;;;;29.00;13.28;102814.02;84625;1330;22674;-78
2022/03/22 09:41:56;;;;;;;;;;;;;;;28.95;13.52;102810.95;84624;1327;22557;-77
2022/03/22 09:44:04;;;;;;;;;;;;;;;28.83;13.46;102807.21;82289;1329;3298075;-71
2022/03/22 09:46:17;;;;;;;21.60;17.90;;;;;;;28.97;12.97;102806.11;84617;1330;22786;-71
2022/03/22 09:53:11;;;;;;;25.50;15.40;;;;;;;28.77;12.89;102801.39;84242;1341;22742;-70
2022/03/22 09:55:18;;;;;;;22.80;15.90;;;;;;;28.30;13.14;102795.06;84147;1340;22620;-77
2022/03/22 09:57:26;;;;;;;21.50;16.00;;;;;;;27.94;13.62;102794.20;84165;1340;22678;-75
2022/03/22 09:59:37;;;;;;;19.40;16.60;;;;;;;27.48;13.64;102789.91;84139;1340;22866;-77
2022/03/22 10:01:44;;;;;;;30.40;16.70;;;;;;;26.82;14.47;102791.48;84349;1340;24316;-77
2022/03/22 10:04:00;;;;;;;23.00;15.50;;;;;;;26.27;14.56;102790.33;84031;1337;474132;-78
2022/03/22 10:06:10;;;;;;;26.30;18.40;;;;;;;25.35;15.00;102792.08;84437;1336;25140;-71
2022/03/22 10:08:17;;;;;;;23.20;16.80;;;;;;;24.61;15.76;102791.39;84411;1335;22587;-71
2022/03/22 10:10:27;;;;;;;22.90;16.70;;;;;;;24.06;15.65;102784.91;84430;1337;25269;-71
2022/03/22 10:12:35;;;;;;;29.20;18.10;;;;;;;23.48;16.08;102785.45;84431;1333;23914;-72
2022/03/22 10:14:43;;;;;;;24.50;17.40;;;;;;;22.96;16.78;102783.39;84478;1333;22610;-80
2022/03/22 10:16:53;;;;;;;28.40;18.40;;;;;;;22.52;16.63;102794.15;84443;1334;25286;-85
2022/03/22 10:19:01;;;;;;;27.40;19.60;;;;;;;21.89;17.24;102789.38;84430;1334;22633;-81
2022/03/22 10:21:10;;;;;;;29.10;19.70;;;;;;;21.56;17.99;102790.38;84422;1336;23158;-84
2022/03/22 10:23:18;;;;;;;27.20;18.30;;;;;;;21.15;18.47;102790.77;84421;1337;25330;-82
2022/03/22 10:25:31;;;;;;;35.60;19.30;;;;;;;20.85;18.57;102793.15;84476;1333;22657;-72
2022/03/22 10:27:42;;;;;;;28.10;18.80;;;;;;;20.68;19.29;102788.71;84456;1334;22838;-71
2022/03/22 10:29:50;;;;;;;27.60;17.00;;;;;;;20.55;19.08;102787.11;84458;1333;23997;-72
2022/03/22 10:32:05;;;;;;;30.00;18.80;;;;;;;20.25;19.04;102783.34;84492;1334;22603;-71
2022/03/22 10:34:15;;;;;;;27.10;17.90;;;;;;;20.08;19.26;102785.61;84457;1337;24306;-71
2022/03/22 10:36:26;;;;;;;22.20;16.90;;;;;;;19.87;19.42;102785.05;84474;1333;25345;-72